KELZ/ELZ METAR and TAF weather

Enter ICAO airport designator
Station Type Date Time Source
KELZ METAR 2022/12/05 13:56 UTC NOAA

KELZ 051356Z AUTO 22009G16KT 10SM CLR M01/M11 A3008 RMK AO2 SLP210 T10111111


Station Type Date Time Source
KELZ Decoded METAR 2022/12/05 13:56 UTC NOAA

WELLSVILLE MUNICIPAL AIRPORT, NY, United States (KELZ) 42-06N 077-60W 646M
Dec 05, 2022 - 08:56 AM EST / 2022.12.05 1356 UTC
Wind: from the SW (220 degrees) at 10 MPH (9 KT) gusting to 18 MPH (16 KT):0
Visibility: 10 mile(s):0
Sky conditions: clear
Temperature: 30.0 F (-1.1 C)
Windchill: 21 F (-6 C):1
Dew Point: 12.0 F (-11.1 C)
Relative Humidity: 46%
Pressure (altimeter): 30.08 in. Hg (1018 hPa)
ob: KELZ 051356Z AUTO 22009G16KT 10SM CLR M01/M11 A3008 RMK AO2 SLP210 T10111111
cycle: 14

Station Type Date Time Source
KELZ TAF UTC NOAA

Error!

Example: see airport list